createdAt,value
2023-05-06T00:00:30.391Z,42.46
2023-05-06T00:03:00.293Z,42.54
2023-05-06T00:05:28.299Z,42.74
2023-05-06T00:07:56.163Z,42.58
2023-05-06T00:10:24.148Z,42.76
2023-05-06T00:12:51.916Z,42.83
2023-05-06T00:15:19.857Z,42.57
2023-05-06T00:17:47.830Z,42.56
2023-05-06T00:20:17.089Z,42.64
2023-05-06T00:22:45.055Z,42.74
2023-05-06T00:25:13.170Z,42.68
2023-05-06T00:27:42.120Z,42.79
2023-05-06T00:30:11.759Z,43.03
2023-05-06T00:32:40.049Z,42.93
2023-05-06T00:35:09.284Z,42.98
2023-05-06T00:37:39.448Z,42.61
2023-05-06T00:40:08.803Z,42.74
2023-05-06T00:42:36.761Z,42.80
2023-05-06T00:45:04.898Z,42.80
2023-05-06T00:47:32.839Z,42.95
2023-05-06T00:50:00.993Z,42.90
2023-05-06T00:52:28.941Z,42.89
2023-05-06T00:54:58.503Z,42.80
2023-05-06T00:57:26.616Z,42.93
2023-05-06T00:59:55.524Z,43.05
2023-05-06T01:02:28.296Z,43.05
2023-05-06T01:05:03.333Z,43.01
2023-05-06T01:07:42.019Z,43.11
2023-05-06T01:10:18.870Z,43.06
2023-05-06T01:12:52.835Z,43.13
2023-05-06T01:15:28.733Z,43.11
2023-05-06T01:17:59.944Z,42.82
2023-05-06T01:20:28.605Z,43.39
2023-05-06T01:22:57.067Z,43.02
2023-05-06T01:25:26.338Z,43.01
2023-05-06T01:27:54.088Z,43.19
2023-05-06T01:30:25.921Z,43.26
2023-05-06T01:33:03.149Z,43.42
2023-05-06T01:35:41.543Z,43.33
2023-05-06T01:38:18.738Z,43.23
2023-05-06T01:40:54.353Z,43.41
2023-05-06T01:43:23.364Z,43.03
2023-05-06T01:45:55.139Z,43.52
2023-05-06T01:48:24.562Z,43.56
2023-05-06T01:50:52.830Z,43.52
2023-05-06T01:53:20.725Z,43.22
2023-05-06T01:55:50.017Z,43.00
2023-05-06T01:58:17.874Z,43.26
2023-05-06T02:00:45.770Z,43.38
2023-05-06T02:03:14.192Z,43.74
2023-05-06T02:05:42.092Z,43.27
2023-05-06T02:08:09.899Z,43.72
2023-05-06T02:10:38.185Z,43.60
2023-05-06T02:13:07.612Z,43.49
2023-05-06T02:15:35.667Z,43.44
2023-05-06T02:18:03.597Z,43.61
2023-05-06T02:20:31.497Z,43.57
2023-05-06T02:22:59.389Z,43.75
2023-05-06T02:25:27.649Z,43.24
2023-05-06T02:27:55.416Z,43.48
2023-05-06T02:30:25.367Z,43.55
2023-05-06T02:32:53.982Z,43.47
2023-05-06T02:35:22.269Z,43.89
2023-05-06T02:37:50.388Z,44.06
2023-05-06T02:40:18.668Z,43.38
2023-05-06T02:42:47.132Z,43.67
2023-05-06T02:45:15.543Z,43.78
2023-05-06T02:47:45.470Z,43.79
2023-05-06T02:50:14.079Z,43.69
2023-05-06T02:52:42.957Z,43.74
2023-05-06T02:55:11.833Z,43.86
2023-05-06T02:57:40.302Z,44.05
2023-05-06T03:00:11.172Z,44.37
2023-05-06T03:02:39.780Z,43.78
2023-05-06T03:05:10.894Z,44.25
2023-05-06T03:07:40.028Z,43.96
2023-05-06T03:10:09.262Z,44.33
2023-05-06T03:12:37.594Z,44.56
2023-05-06T03:15:07.416Z,44.09
2023-05-06T03:17:36.217Z,43.98
2023-05-06T03:20:05.390Z,44.17
2023-05-06T03:22:35.196Z,44.53
2023-05-06T03:25:03.733Z,44.26
2023-05-06T03:27:32.061Z,44.39
2023-05-06T03:30:00.400Z,44.43
2023-05-06T03:32:28.998Z,44.39
2023-05-06T03:34:57.500Z,44.74
2023-05-06T03:37:26.145Z,44.81
2023-05-06T03:39:55.963Z,44.44
2023-05-06T03:42:24.540Z,44.68
2023-05-06T03:44:52.770Z,44.66
2023-05-06T03:47:21.300Z,44.80
2023-05-06T03:49:50.099Z,44.75
2023-05-06T03:52:18.542Z,45.11
2023-05-06T03:54:47.051Z,44.95
2023-05-06T03:57:16.712Z,44.88
2023-05-06T03:59:45.248Z,45.13
2023-05-06T04:02:13.394Z,44.93
2023-05-06T04:04:41.788Z,45.03
2023-05-06T04:07:10.186Z,45.22
2023-05-06T04:09:38.400Z,45.23
2023-05-06T04:12:07.140Z,45.35
2023-05-06T04:14:36.718Z,45.45
2023-05-06T04:17:05.639Z,45.40
2023-05-06T04:19:34.183Z,45.54
2023-05-06T04:22:02.730Z,45.52
2023-05-06T04:27:32.752Z,45.70
2023-05-06T04:30:03.317Z,45.75
2023-05-06T04:32:32.039Z,45.78
2023-05-06T04:35:00.725Z,45.98
2023-05-06T04:37:29.496Z,46.07
2023-05-06T04:39:58.084Z,46.16
2023-05-06T04:42:26.683Z,46.12
2023-05-06T04:44:55.092Z,46.39
2023-05-06T04:47:24.869Z,46.17
2023-05-06T04:49:53.501Z,46.63
2023-05-06T04:52:22.234Z,46.89
2023-05-06T04:54:50.413Z,46.59
2023-05-06T04:57:18.623Z,46.96
2023-05-06T04:59:46.747Z,47.21
2023-05-06T05:02:14.839Z,47.46
2023-05-06T05:04:44.846Z,47.48
2023-05-06T05:07:13.173Z,47.65
2023-05-06T05:09:41.658Z,47.76
2023-05-06T05:12:12.509Z,47.98
2023-05-06T05:14:40.922Z,48.02
2023-05-06T05:17:09.352Z,48.16
2023-05-06T05:19:37.943Z,48.40
2023-05-06T05:22:07.751Z,48.20
2023-05-06T05:24:36.126Z,48.45
2023-05-06T05:27:04.786Z,48.49
2023-05-06T05:29:33.409Z,48.53
2023-05-06T05:32:01.679Z,49.15
2023-05-06T05:34:31.128Z,48.47
2023-05-06T05:36:59.638Z,49.19
2023-05-06T05:39:29.216Z,49.20
2023-05-06T05:41:57.435Z,49.63
2023-05-06T05:44:25.787Z,49.31
2023-05-06T05:46:54.199Z,49.75
2023-05-06T05:49:22.791Z,49.28
2023-05-06T05:51:51.130Z,49.31
2023-05-06T05:54:19.492Z,49.30
2023-05-06T05:56:50.689Z,49.98
2023-05-06T05:59:18.969Z,49.69
2023-05-06T06:01:47.439Z,49.79
2023-05-06T06:04:16.080Z,49.79
2023-05-06T06:06:44.722Z,50.51
2023-05-06T06:09:13.100Z,50.10
2023-05-06T06:11:41.723Z,50.55
2023-05-06T06:14:11.420Z,50.60
2023-05-06T06:16:39.912Z,50.58
2023-05-06T06:19:08.520Z,50.54
2023-05-06T06:21:37.297Z,50.63
2023-05-06T06:24:06.535Z,50.97
2023-05-06T06:26:34.980Z,50.76
2023-05-06T06:29:03.447Z,51.09
2023-05-06T06:31:34.145Z,51.06
2023-05-06T06:34:05.454Z,51.53
2023-05-06T06:36:33.933Z,51.02
2023-05-06T06:39:02.358Z,51.27
2023-05-06T06:41:30.811Z,51.67
2023-05-06T06:44:00.049Z,51.46
2023-05-06T06:46:28.217Z,52.06
2023-05-06T06:48:57.845Z,51.47
2023-05-06T06:51:26.047Z,51.81
2023-05-06T06:53:54.042Z,51.98
2023-05-06T06:56:22.045Z,51.51
2023-05-06T06:58:52.387Z,51.90
2023-05-06T07:01:21.470Z,51.92
2023-05-06T07:03:49.772Z,52.09
2023-05-06T07:06:19.344Z,51.87
2023-05-06T07:08:47.526Z,51.90
2023-05-06T07:11:15.805Z,51.78
2023-05-06T07:13:44.170Z,51.59
2023-05-06T07:16:12.302Z,52.16
2023-05-06T07:18:40.882Z,52.22
2023-05-06T07:21:09.204Z,52.06
2023-05-06T07:23:38.919Z,51.80
2023-05-06T07:26:07.101Z,52.16
2023-05-06T07:28:35.368Z,52.34
2023-05-06T07:31:03.572Z,52.51
2023-05-06T07:33:35.270Z,52.46
2023-05-06T07:36:03.429Z,52.47
2023-05-06T07:38:31.567Z,52.61
2023-05-06T07:41:01.252Z,52.46
2023-05-06T07:43:29.706Z,52.56
2023-05-06T07:46:02.884Z,52.18
2023-05-06T07:48:32.761Z,52.17
2023-05-06T07:51:01.701Z,52.11
2023-05-06T07:53:29.869Z,52.29
2023-05-06T07:56:02.359Z,52.33
2023-05-06T07:58:32.268Z,52.26
2023-05-06T08:01:00.548Z,52.48
2023-05-06T08:03:29.188Z,52.35
2023-05-06T08:05:57.720Z,52.37
2023-05-06T08:08:28.098Z,52.56
2023-05-06T08:10:58.902Z,52.52
2023-05-06T08:13:28.276Z,52.03
2023-05-06T08:15:57.901Z,52.38
2023-05-06T08:18:26.523Z,52.14
2023-05-06T08:20:54.952Z,52.43
2023-05-06T08:23:23.327Z,52.34
2023-05-06T08:25:52.034Z,52.37
2023-05-06T08:28:20.748Z,52.27
2023-05-06T08:30:51.441Z,52.51
2023-05-06T08:33:21.305Z,52.55
2023-05-06T08:35:50.950Z,52.44
2023-05-06T08:38:21.548Z,52.44
2023-05-06T08:40:50.540Z,52.71
2023-05-06T08:43:21.725Z,52.47
2023-05-06T08:45:51.111Z,52.39
2023-05-06T08:48:21.044Z,52.30
2023-05-06T08:50:50.844Z,52.46
2023-05-06T08:53:19.498Z,52.52
2023-05-06T08:55:51.305Z,52.56
2023-05-06T08:58:20.915Z,52.51
2023-05-06T09:00:49.874Z,52.59
2023-05-06T09:03:18.404Z,52.42
2023-05-06T09:05:48.197Z,52.39
2023-05-06T09:08:16.681Z,52.44
2023-05-06T09:10:46.352Z,52.51
2023-05-06T09:13:16.202Z,52.42
2023-05-06T09:15:47.380Z,52.39
2023-05-06T09:18:16.590Z,52.49
2023-05-06T09:20:48.135Z,52.43
2023-05-06T09:23:19.240Z,52.22
2023-05-06T09:25:49.989Z,52.22
2023-05-06T09:28:18.167Z,52.23
2023-05-06T09:30:47.895Z,52.33
2023-05-06T09:33:16.548Z,52.15
2023-05-06T09:35:45.868Z,52.06
2023-05-06T09:38:16.697Z,52.09
2023-05-06T09:40:44.946Z,52.07
2023-05-06T09:43:15.727Z,52.08
2023-05-06T09:45:45.128Z,52.01
2023-05-06T09:48:14.213Z,51.87
2023-05-06T09:50:43.996Z,51.87
2023-05-06T09:53:13.795Z,51.90
2023-05-06T09:55:43.905Z,51.97
2023-05-06T09:58:13.358Z,51.65
2023-05-06T10:00:42.578Z,51.66
2023-05-06T10:03:11.926Z,51.74
2023-05-06T10:05:40.930Z,51.62
2023-05-06T10:08:10.723Z,51.55
2023-05-06T10:10:43.166Z,51.52
2023-05-06T10:13:14.628Z,51.33
2023-05-06T10:15:45.577Z,51.36
2023-05-06T10:18:17.189Z,51.24
2023-05-06T10:20:46.646Z,50.95
2023-05-06T10:23:24.914Z,50.96
2023-05-06T10:25:57.127Z,51.17
2023-05-06T10:28:30.676Z,51.01
2023-05-06T10:31:00.488Z,51.01
2023-05-06T10:33:29.891Z,50.96
2023-05-06T10:36:20.495Z,50.65
2023-05-06T10:38:54.948Z,50.76
2023-05-06T10:41:24.159Z,50.45
2023-05-06T10:43:57.257Z,50.48
2023-05-06T10:46:26.857Z,50.38
2023-05-06T10:49:18.428Z,50.36
2023-05-06T10:51:48.563Z,50.31
2023-05-06T10:54:24.809Z,49.82
2023-05-06T10:57:12.084Z,49.93
2023-05-06T10:59:46.963Z,49.88
2023-05-06T11:02:16.032Z,49.71
2023-05-06T11:04:51.110Z,49.74
2023-05-06T11:07:24.966Z,49.60
2023-05-06T11:09:57.948Z,49.56
2023-05-06T11:12:46.047Z,49.55
2023-05-06T11:15:25.765Z,49.22
2023-05-06T11:17:58.058Z,49.29
2023-05-06T11:20:27.721Z,49.15
2023-05-06T11:22:57.829Z,49.10
2023-05-06T11:25:42.288Z,48.97
2023-05-06T11:28:12.369Z,48.66
2023-05-06T11:30:43.396Z,49.03
2023-05-06T11:33:20.389Z,48.52
2023-05-06T11:35:49.427Z,48.55
2023-05-06T11:38:18.014Z,48.59
2023-05-06T11:40:46.950Z,48.55
2023-05-06T11:43:16.519Z,48.38
2023-05-06T11:45:47.870Z,48.23
2023-05-06T11:48:17.379Z,48.15
2023-05-06T11:50:47.535Z,48.10
2023-05-06T11:53:19.314Z,47.93
2023-05-06T11:55:48.698Z,48.04
2023-05-06T11:58:17.849Z,47.91
2023-05-06T12:00:52.112Z,47.71
2023-05-06T12:03:20.989Z,47.66
2023-05-06T12:05:50.167Z,47.61
2023-05-06T12:08:27.465Z,47.39
2023-05-06T12:11:01.992Z,47.42
2023-05-06T12:13:31.071Z,47.43
2023-05-06T12:16:01.684Z,47.17
2023-05-06T12:18:31.109Z,47.20
2023-05-06T12:21:03.856Z,47.18
2023-05-06T12:23:32.317Z,47.15
2023-05-06T12:26:05.902Z,47.03
2023-05-06T12:28:37.372Z,46.74
2023-05-06T12:31:21.282Z,46.61
2023-05-06T12:33:50.781Z,46.57
2023-05-06T12:36:19.836Z,46.54
2023-05-06T12:38:52.752Z,46.44
2023-05-06T12:41:21.513Z,46.41
2023-05-06T12:43:49.862Z,46.42
2023-05-06T12:46:18.734Z,46.15
2023-05-06T12:49:03.183Z,46.26
2023-05-06T12:51:32.473Z,46.10
2023-05-06T12:54:00.787Z,46.27
2023-05-06T12:56:31.991Z,45.99
2023-05-06T12:59:01.041Z,45.86
2023-05-06T13:01:29.552Z,45.79
2023-05-06T13:03:58.520Z,45.69
2023-05-06T13:06:28.222Z,45.85
2023-05-06T13:08:56.654Z,45.65
2023-05-06T13:11:25.887Z,45.69
2023-05-06T13:13:54.179Z,45.66
2023-05-06T13:16:22.623Z,45.58
2023-05-06T13:18:50.983Z,45.46
2023-05-06T13:21:19.211Z,45.15
2023-05-06T13:23:48.898Z,45.31
2023-05-06T13:26:18.683Z,45.41
2023-05-06T13:28:46.952Z,45.33
2023-05-06T13:31:15.522Z,45.05
2023-05-06T13:33:44.031Z,45.18
2023-05-06T13:36:12.197Z,44.90
2023-05-06T13:38:40.683Z,44.72
2023-05-06T13:41:10.442Z,44.74
2023-05-06T13:43:38.931Z,44.67
2023-05-06T13:46:09.666Z,44.33
2023-05-06T13:48:38.395Z,44.29
2023-05-06T13:51:06.951Z,44.42
2023-05-06T13:53:35.785Z,44.21
2023-05-06T13:56:04.200Z,44.29
2023-05-06T13:58:33.757Z,44.09
2023-05-06T14:01:02.036Z,43.94
2023-05-06T14:03:30.615Z,43.91
2023-05-06T14:05:59.007Z,43.92
2023-05-06T14:08:27.434Z,43.82
2023-05-06T14:10:55.970Z,43.93
2023-05-06T14:13:24.437Z,43.83
2023-05-06T14:15:54.142Z,43.73
2023-05-06T14:18:24.111Z,43.55
2023-05-06T14:20:53.573Z,43.60
2023-05-06T14:23:22.063Z,43.66
2023-05-06T14:25:50.717Z,43.63
2023-05-06T14:28:19.228Z,43.56
2023-05-06T14:30:47.661Z,43.43
2023-05-06T14:33:17.491Z,43.30
2023-05-06T14:35:46.259Z,43.21
2023-05-06T14:38:14.527Z,43.03
2023-05-06T14:40:42.658Z,43.11
2023-05-06T14:43:10.937Z,42.94
2023-05-06T14:45:39.192Z,42.83
2023-05-06T14:48:08.061Z,42.79
2023-05-06T14:50:39.608Z,42.67
2023-05-06T14:53:07.682Z,42.67
2023-05-06T14:55:38.872Z,42.61
2023-05-06T14:58:07.103Z,42.62
2023-05-06T15:00:36.332Z,42.52
2023-05-06T15:03:04.586Z,42.41
2023-05-06T15:05:33.057Z,42.46
2023-05-06T15:08:02.670Z,42.31
2023-05-06T15:10:30.944Z,42.16
2023-05-06T15:12:59.201Z,42.24
2023-05-06T15:15:27.543Z,42.18
2023-05-06T15:17:56.057Z,42.12
2023-05-06T15:20:24.804Z,41.89
2023-05-06T15:22:53.050Z,41.91
2023-05-06T15:25:34.338Z,41.73
2023-05-06T15:28:03.827Z,41.51
2023-05-06T15:30:32.264Z,41.50
2023-05-06T15:33:02.978Z,41.27
2023-05-06T15:35:32.663Z,41.00
2023-05-06T15:38:00.886Z,41.10
2023-05-06T15:40:31.367Z,40.77
2023-05-06T15:43:00.221Z,40.98
2023-05-06T15:45:28.531Z,40.73
2023-05-06T15:47:56.890Z,40.81
2023-05-06T15:50:33.559Z,40.47
2023-05-06T15:53:03.009Z,40.37
2023-05-06T15:55:42.353Z,40.57
2023-05-06T15:58:13.732Z,40.31
2023-05-06T16:00:42.024Z,40.74
2023-05-06T16:03:12.156Z,40.66
2023-05-06T16:05:41.417Z,40.62
2023-05-06T16:08:09.596Z,40.59
2023-05-06T16:10:39.151Z,40.33
2023-05-06T16:13:07.540Z,40.27
2023-05-06T16:15:36.486Z,40.51
2023-05-06T16:18:05.103Z,40.28
2023-05-06T16:20:33.804Z,40.03
2023-05-06T16:23:02.903Z,40.04
2023-05-06T16:25:31.375Z,39.80
2023-05-06T16:28:01.192Z,39.76
2023-05-06T16:30:29.837Z,39.67
2023-05-06T16:32:58.259Z,39.74
2023-05-06T16:35:26.691Z,39.87
2023-05-06T16:37:55.029Z,39.49
2023-05-06T16:40:23.255Z,39.54
2023-05-06T16:42:51.421Z,39.15
2023-05-06T16:45:21.126Z,39.24
2023-05-06T16:47:49.596Z,39.11
2023-05-06T16:50:17.753Z,38.96
2023-05-06T16:52:45.855Z,38.69
2023-05-06T16:55:14.451Z,38.77
2023-05-06T16:57:46.560Z,38.34
2023-05-06T17:00:16.672Z,38.61
2023-05-06T17:02:46.331Z,38.46
2023-05-06T17:05:14.976Z,38.44
2023-05-06T17:07:43.428Z,38.36
2023-05-06T17:10:12.331Z,38.55
2023-05-06T17:12:41.908Z,38.17
2023-05-06T17:15:10.897Z,38.17
2023-05-06T17:17:40.304Z,38.11
2023-05-06T17:20:11.071Z,38.33
2023-05-06T17:22:40.176Z,37.88
2023-05-06T17:25:08.952Z,38.29
2023-05-06T17:27:37.564Z,38.31
2023-05-06T17:30:07.216Z,38.39
2023-05-06T17:32:35.773Z,38.41
2023-05-06T17:35:04.126Z,37.93
2023-05-06T17:37:34.562Z,38.39
2023-05-06T17:40:03.436Z,37.59
2023-05-06T17:42:32.888Z,38.13
2023-05-06T17:45:01.171Z,38.31
2023-05-06T17:47:30.383Z,37.53
2023-05-06T17:49:58.923Z,38.09
2023-05-06T17:52:27.368Z,37.38
2023-05-06T17:55:11.351Z,37.87
2023-05-06T17:57:44.240Z,38.00
2023-05-06T18:00:14.131Z,37.67
2023-05-06T18:02:42.497Z,38.10
2023-05-06T18:05:11.652Z,37.58
2023-05-06T18:07:41.992Z,37.82
2023-05-06T18:10:12.441Z,37.39
2023-05-06T18:12:40.784Z,37.52
2023-05-06T18:15:10.162Z,37.22
2023-05-06T18:17:38.804Z,37.90
2023-05-06T18:20:08.391Z,37.89
2023-05-06T18:22:36.634Z,37.67
2023-05-06T18:25:05.405Z,37.68
2023-05-06T18:27:35.374Z,37.62
2023-05-06T18:30:04.733Z,37.14
2023-05-06T18:32:33.197Z,37.50
2023-05-06T18:35:01.386Z,37.13
2023-05-06T18:37:29.872Z,37.17
2023-05-06T18:39:58.182Z,37.21
2023-05-06T18:42:27.756Z,36.83
2023-05-06T18:44:58.086Z,37.36
2023-05-06T18:47:26.687Z,37.19
2023-05-06T18:49:54.930Z,36.94
2023-05-06T18:52:23.308Z,37.08
2023-05-06T18:54:51.792Z,36.97
2023-05-06T18:57:20.643Z,37.20
2023-05-06T18:59:49.032Z,37.00
2023-05-06T19:02:18.993Z,36.97
2023-05-06T19:04:49.586Z,37.01
2023-05-06T19:07:18.461Z,36.69
2023-05-06T19:09:46.596Z,36.84
2023-05-06T19:12:15.372Z,36.83
2023-05-06T19:14:43.706Z,36.89
2023-05-06T19:17:12.279Z,36.95
2023-05-06T19:19:42.052Z,37.09
2023-05-06T19:22:10.319Z,36.87
2023-05-06T19:24:38.497Z,36.64
2023-05-06T19:27:06.776Z,36.66
2023-05-06T19:29:34.948Z,36.60
2023-05-06T19:32:03.484Z,36.91
2023-05-06T19:34:31.624Z,36.82
2023-05-06T19:37:01.375Z,36.75
2023-05-06T19:39:29.643Z,36.46
2023-05-06T19:41:58.593Z,36.66
2023-05-06T19:44:26.921Z,36.80
2023-05-06T19:46:55.545Z,36.48
2023-05-06T19:49:23.836Z,36.53
2023-05-06T19:51:52.271Z,36.81
2023-05-06T19:54:22.538Z,36.69
2023-05-06T19:56:50.706Z,36.59
2023-05-06T19:59:18.699Z,36.44
2023-05-06T20:01:47.018Z,36.71
2023-05-06T20:04:15.204Z,36.53
2023-05-06T20:06:43.970Z,36.56
2023-05-06T20:09:12.258Z,36.50
2023-05-06T20:11:42.063Z,36.79
2023-05-06T20:14:10.242Z,36.63
2023-05-06T20:16:39.078Z,36.58
2023-05-06T20:19:08.226Z,36.69
2023-05-06T20:21:36.404Z,36.55
2023-05-06T20:24:04.988Z,36.50
2023-05-06T20:26:33.363Z,36.32
2023-05-06T20:29:02.970Z,36.35
2023-05-06T20:31:31.399Z,36.29
2023-05-06T20:33:59.640Z,36.13
2023-05-06T20:36:28.004Z,36.34
2023-05-06T20:38:56.430Z,36.61
2023-05-06T20:41:24.666Z,36.18
2023-05-06T20:43:53.808Z,36.22
2023-05-06T20:46:23.443Z,36.47
2023-05-06T20:48:51.974Z,36.57
2023-05-06T20:51:20.577Z,36.55
2023-05-06T20:53:48.960Z,36.18
2023-05-06T20:56:22.194Z,36.04
2023-05-06T20:58:50.459Z,36.71
2023-05-06T21:01:19.299Z,36.29
2023-05-06T21:03:49.776Z,36.30
2023-05-06T21:06:20.438Z,36.64
2023-05-06T21:08:48.809Z,36.69
2023-05-06T21:11:17.044Z,36.31
2023-05-06T21:13:45.852Z,36.18
2023-05-06T21:16:14.461Z,36.57
2023-05-06T21:18:42.998Z,36.56
2023-05-06T21:21:13.367Z,36.33
2023-05-06T21:23:41.707Z,36.40
2023-05-06T21:26:10.238Z,36.36
2023-05-06T21:28:38.610Z,36.53
2023-05-06T21:31:06.923Z,36.69
2023-05-06T21:33:35.417Z,36.75
2023-05-06T21:36:03.955Z,36.80
2023-05-06T21:38:33.765Z,36.54
2023-05-06T21:41:02.362Z,36.85
2023-05-06T21:43:32.027Z,36.29
2023-05-06T21:46:03.584Z,36.64
2023-05-06T21:48:32.103Z,36.16
2023-05-06T21:51:04.621Z,36.08
2023-05-06T21:53:34.487Z,36.72
2023-05-06T21:56:02.608Z,36.18
2023-05-06T21:58:30.796Z,36.45
2023-05-06T22:00:59.287Z,36.27
2023-05-06T22:03:29.211Z,36.16
2023-05-06T22:05:57.722Z,36.40
2023-05-06T22:08:26.321Z,36.24
2023-05-06T22:10:56.834Z,36.32
2023-05-06T22:13:26.995Z,36.32
2023-05-06T22:15:55.829Z,36.65
2023-05-06T22:18:24.172Z,36.56
2023-05-06T22:20:52.608Z,36.25
2023-05-06T22:23:23.132Z,36.30
2023-05-06T22:25:52.214Z,36.30
2023-05-06T22:28:22.047Z,36.26
2023-05-06T22:30:50.322Z,36.40
2023-05-06T22:33:18.598Z,36.15
2023-05-06T22:35:46.820Z,36.39
2023-05-06T22:38:15.098Z,36.45
2023-05-06T22:40:43.535Z,36.16
2023-05-06T22:43:12.016Z,36.29
2023-05-06T22:45:41.839Z,36.40
2023-05-06T22:48:10.347Z,36.51
2023-05-06T22:50:38.784Z,36.52
2023-05-06T22:53:14.544Z,36.47
2023-05-06T22:55:43.675Z,36.40
2023-05-06T22:58:12.176Z,36.26
2023-05-06T23:00:43.569Z,36.51
2023-05-06T23:03:12.873Z,36.53
2023-05-06T23:05:42.373Z,36.29
2023-05-06T23:08:11.219Z,36.57
2023-05-06T23:10:39.422Z,36.38
2023-05-06T23:13:07.873Z,36.48
2023-05-06T23:15:36.682Z,36.36
2023-05-06T23:18:06.858Z,36.24
2023-05-06T23:20:35.325Z,36.41
2023-05-06T23:23:03.801Z,36.46
2023-05-06T23:25:32.431Z,36.64
2023-05-06T23:28:00.704Z,36.77
2023-05-06T23:30:29.166Z,36.58
2023-05-06T23:32:57.653Z,36.58
2023-05-06T23:35:27.332Z,36.36
2023-05-06T23:37:56.077Z,36.51
2023-05-06T23:40:24.404Z,36.65
2023-05-06T23:42:52.882Z,36.54
2023-05-06T23:45:21.260Z,36.68
2023-05-06T23:47:50.081Z,36.66
2023-05-06T23:50:19.197Z,36.65
2023-05-06T23:52:49.094Z,36.50
2023-05-06T23:55:18.468Z,36.65
2023-05-06T23:57:46.858Z,36.39
